Airfield :
LOGIN :

Register | Disclaimer

   EN    FR    IT 

 










Legend :    VFR   Marginal VFR   IFR   Intensive IFR   Very Intensive IFR
Visi :
Ceiling :
>= 8 km
>= 3000ft
5 to 8 km
1000 to 3000 ft
1500m to 5 km
500 to 1000 ft
800 to 1500m
200 to 500 ft
< 800m
< 200 ft
Symbols :   Thunderstorms  Fog  Heavy snow  Heavy precipitations  Wind > 20 kt
SIGMETs :     Misc.  Thunderstorms  Icing  Turbulence  Mountain Waves  Volcanic Ashes







- Airport Elevation : 364 ft
- Download approach charts


LFAQ - Albert Bray

CURRENT METAR :
  • 230730Z AUTO 34007KT 7000 FEW004 BKN014 OVC019 M00/M00 Q0994 TEMPO 1100 SN OVC002

EXPIRED METARs :
  • 230700Z AUTO 30005KT 3800 BR OVC002 00/00 Q0993 TEMPO 1100 SN BECMG 36010KT
  • 230630Z AUTO 27006KT 2800 BR VV/// M00/M00 Q0993 TEMPO 1100 SN OVC002 BECMG 36010KT
  • 230600Z AUTO 23006KT 1500 1200 R27/1900D BR VV/// M01/M01 Q0993 TEMPO 0500 FZFG
  • 230530Z AUTO 20005KT 3900 BR BKN006 BKN010 M01/M01 Q0993 TEMPO 0500 FZFG VV///
  • 230500Z AUTO 20005KT 0900 0500 R27/1400D FZFG BKN005 BKN010 BKN017 M00/M00 Q0993

TAF AMD TAF LFAQ
Valid from the 23 at 06:00 until the 23 at 15:00 UTC


230600Z 2306/2315 20005KT 4000 BR OVC006
TEMPO 2307/2315 1100 SN OVC002
BECMG 2308/2310 36010KT 6000 NSW
No reported NOTAMs for that airfield.



MET'MAP, your aeronautical weather chart ! - Copyright ORBIFLY December 2007 - Disclaimer

ORBIFLY MET'MAP TEAM :

Programming & Development : Alexandra Zaïnal
Concept & Development : Baudouin d'Aumeries
Co-Development & Prog : Marc-Olivier Méhu
Technical & hardware support : Manuel Goepfert

Contact : metmap@orbifly.com




SOURCES & CREDITS :

   NOAA